ASA61 KSEA-PAJN
Flight info
| Callsign | ASA61 |
|---|---|
| Flight time | 2h 3m |
| Altitude | 38000 |
| Route | BANGR9 PANGL KEVNA ANN SSR |
| Aircraft | B737/M-SDE2E3FGHIRWXY/LB1 |
Departure
| Time | 2026-05-01 11:23 |
|---|---|
| Airport | Seattle–Tacoma International Airport (KSEA) |
Arrival
| Time | 2026-05-01 13:27 |
|---|---|
| Airport | Juneau International Airport (PAJN) |
| Time | Latitude | Longitude | Altitude | Speed | Heading |
|---|---|---|---|---|---|
| 2026-05-01 10:51 | 47.44693 | -122.30425 | 400 ft | 0 kts | 182° |
| 2026-05-01 11:15 | 47.44706 | -122.30425 | 401 ft | 2 kts | 181° |
| 2026-05-01 11:15 | 47.44721 | -122.30424 | 401 ft | 2 kts | 182° |
| 2026-05-01 11:16 | 47.44736 | -122.30421 | 402 ft | 2 kts | 213° |
| 2026-05-01 11:16 | 47.44746 | -122.30405 | 402 ft | 2 kts | 245° |
| 2026-05-01 11:16 | 47.44749 | -122.30383 | 402 ft | 2 kts | 279° |
| 2026-05-01 11:16 | 47.44745 | -122.30366 | 402 ft | 0 kts | 305° |
| 2026-05-01 11:17 | 47.44746 | -122.30370 | 402 ft | 3 kts | 303° |
| 2026-05-01 11:17 | 47.44757 | -122.30390 | 402 ft | 0 kts | 309° |
| 2026-05-01 11:19 | 47.44767 | -122.30410 | 403 ft | 7 kts | 306° |
| 2026-05-01 11:19 | 47.44787 | -122.30515 | 404 ft | 12 kts | 272° |
| 2026-05-01 11:20 | 47.44765 | -122.30622 | 403 ft | 11 kts | 205° |
| 2026-05-01 11:20 | 47.44674 | -122.30630 | 399 ft | 14 kts | 181° |
| 2026-05-01 11:20 | 47.44565 | -122.30631 | 395 ft | 16 kts | 180° |
| 2026-05-01 11:20 | 47.44444 | -122.30632 | 390 ft | 18 kts | 179° |
| 2026-05-01 11:21 | 47.44309 | -122.30634 | 387 ft | 19 kts | 180° |
| 2026-05-01 11:21 | 47.44165 | -122.30635 | 381 ft | 21 kts | 180° |
| 2026-05-01 11:21 | 47.44006 | -122.30637 | 376 ft | 23 kts | 180° |
| 2026-05-01 11:21 | 47.43851 | -122.30639 | 370 ft | 11 kts | 180° |
| 2026-05-01 11:22 | 47.43806 | -122.30715 | 367 ft | 10 kts | 270° |
| 2026-05-01 11:22 | 47.43820 | -122.30794 | 367 ft | 6 kts | 339° |
| 2026-05-01 11:22 | 47.43912 | -122.30797 | 370 ft | 33 kts | 1° |
| 2026-05-01 11:22 | 47.44380 | -122.30793 | 387 ft | 98 kts | 0° |
| 2026-05-01 11:23 | 47.45255 | -122.30786 | 423 ft | 150 kts | 0° |
| 2026-05-01 11:23 | 47.46332 | -122.30777 | 938 ft | 155 kts | 360° |
| 2026-05-01 11:23 | 47.47414 | -122.30793 | 1484 ft | 162 kts | 0° |
| 2026-05-01 11:23 | 47.48590 | -122.30791 | 1924 ft | 176 kts | 1° |
| 2026-05-01 11:24 | 47.49843 | -122.30765 | 2402 ft | 183 kts | 2° |
| 2026-05-01 11:24 | 47.51156 | -122.30765 | 2793 ft | 194 kts | 0° |
| 2026-05-01 11:24 | 47.54038 | -122.30928 | 3639 ft | 221 kts | 359° |
| 2026-05-01 11:25 | 47.55629 | -122.31209 | 4015 ft | 238 kts | 345° |
| 2026-05-01 11:25 | 47.58615 | -122.33926 | 4792 ft | 269 kts | 323° |
| 2026-05-01 11:25 | 47.59996 | -122.35827 | 5411 ft | 273 kts | 309° |
| 2026-05-01 11:26 | 47.60972 | -122.38251 | 6278 ft | 277 kts | 290° |
| 2026-05-01 11:26 | 47.61735 | -122.43806 | 8100 ft | 280 kts | 277° |
| 2026-05-01 11:26 | 47.62004 | -122.46674 | 8972 ft | 282 kts | 275° |
| 2026-05-01 11:27 | 47.62178 | -122.49528 | 9823 ft | 283 kts | 274° |
| 2026-05-01 11:27 | 47.62334 | -122.52464 | 10561 ft | 291 kts | 273° |
| 2026-05-01 11:27 | 47.62493 | -122.55519 | 11034 ft | 306 kts | 273° |
| 2026-05-01 11:27 | 47.62664 | -122.58742 | 11489 ft | 322 kts | 273° |
| 2026-05-01 11:28 | 47.62846 | -122.62127 | 11932 ft | 337 kts | 273° |
| 2026-05-01 11:28 | 47.63039 | -122.65688 | 12358 ft | 351 kts | 272° |
| 2026-05-01 11:28 | 47.63235 | -122.69309 | 13113 ft | 355 kts | 272° |
| 2026-05-01 11:29 | 47.63634 | -122.76672 | 14508 ft | 362 kts | 272° |
| 2026-05-01 11:29 | 47.63833 | -122.80370 | 15196 ft | 365 kts | 272° |
| 2026-05-01 11:29 | 47.64371 | -122.87921 | 16459 ft | 374 kts | 279° |
| 2026-05-01 11:30 | 47.65202 | -122.91608 | 17072 ft | 381 kts | 294° |
| 2026-05-01 11:30 | 47.66695 | -122.94872 | 17698 ft | 388 kts | 308° |
| 2026-05-01 11:30 | 47.68578 | -122.97847 | 18288 ft | 392 kts | 312° |
| 2026-05-01 11:30 | 47.70529 | -123.00710 | 18885 ft | 396 kts | 313° |
| 2026-05-01 11:31 | 47.72505 | -123.03554 | 19478 ft | 399 kts | 313° |
| 2026-05-01 11:31 | 47.74497 | -123.06423 | 20060 ft | 403 kts | 313° |
| 2026-05-01 11:31 | 47.76523 | -123.09367 | 20652 ft | 405 kts | 313° |
| 2026-05-01 11:31 | 47.78534 | -123.12309 | 21191 ft | 409 kts | 313° |
| 2026-05-01 11:32 | 47.80552 | -123.15276 | 21740 ft | 412 kts | 313° |
| 2026-05-01 11:32 | 47.82584 | -123.18279 | 22276 ft | 415 kts | 312° |
| 2026-05-01 11:32 | 47.84631 | -123.21313 | 22792 ft | 418 kts | 312° |
| 2026-05-01 11:32 | 47.86716 | -123.24410 | 23306 ft | 422 kts | 312° |
| 2026-05-01 11:33 | 47.88784 | -123.27488 | 23804 ft | 424 kts | 312° |
| 2026-05-01 11:33 | 47.90889 | -123.30624 | 24313 ft | 427 kts | 312° |
| 2026-05-01 11:33 | 47.92974 | -123.33736 | 24797 ft | 429 kts | 312° |
| 2026-05-01 11:33 | 47.95090 | -123.36900 | 25257 ft | 432 kts | 312° |
| 2026-05-01 11:34 | 47.97198 | -123.40058 | 25740 ft | 433 kts | 312° |
| 2026-05-01 11:34 | 47.99335 | -123.43262 | 26137 ft | 436 kts | 312° |
| 2026-05-01 11:34 | 48.01487 | -123.46493 | 26563 ft | 438 kts | 312° |
| 2026-05-01 11:34 | 48.03635 | -123.49716 | 26950 ft | 441 kts | 312° |
| 2026-05-01 11:35 | 48.05804 | -123.52976 | 27359 ft | 443 kts | 312° |
| 2026-05-01 11:35 | 48.08020 | -123.56313 | 27765 ft | 444 kts | 312° |
| 2026-05-01 11:35 | 48.10202 | -123.59603 | 28113 ft | 447 kts | 312° |
| 2026-05-01 11:35 | 48.12427 | -123.62934 | 28512 ft | 448 kts | 313° |
| 2026-05-01 11:36 | 48.14700 | -123.66142 | 29060 ft | 447 kts | 315° |
| 2026-05-01 11:36 | 48.17150 | -123.69027 | 29601 ft | 446 kts | 321° |
| 2026-05-01 11:36 | 48.19738 | -123.71663 | 30144 ft | 445 kts | 323° |
| 2026-05-01 11:36 | 48.22349 | -123.74128 | 30563 ft | 445 kts | 324° |
| 2026-05-01 11:37 | 48.24991 | -123.76533 | 30946 ft | 446 kts | 325° |
| 2026-05-01 11:37 | 48.27665 | -123.78942 | 31422 ft | 444 kts | 325° |
| 2026-05-01 11:37 | 48.30294 | -123.81315 | 31845 ft | 443 kts | 325° |
| 2026-05-01 11:37 | 48.32942 | -123.83721 | 32280 ft | 442 kts | 325° |
| 2026-05-01 11:38 | 48.35571 | -123.86132 | 32647 ft | 442 kts | 325° |
| 2026-05-01 11:38 | 48.38146 | -123.88512 | 33087 ft | 440 kts | 325° |
| 2026-05-01 11:38 | 48.40757 | -123.90938 | 33441 ft | 440 kts | 324° |
| 2026-05-01 11:38 | 48.43370 | -123.93376 | 33856 ft | 438 kts | 324° |
| 2026-05-01 11:39 | 48.45935 | -123.95776 | 34254 ft | 437 kts | 324° |
| 2026-05-01 11:39 | 48.48514 | -123.98193 | 34581 ft | 437 kts | 324° |
| 2026-05-01 11:39 | 48.51101 | -124.00624 | 34833 ft | 438 kts | 324° |
| 2026-05-01 11:40 | 48.56337 | -124.05566 | 34904 ft | 451 kts | 324° |
| 2026-05-01 11:40 | 48.58985 | -124.08066 | 35320 ft | 448 kts | 324° |
| 2026-05-01 11:40 | 48.61617 | -124.10549 | 35630 ft | 447 kts | 324° |
| 2026-05-01 11:40 | 48.64265 | -124.13052 | 35907 ft | 447 kts | 324° |
| 2026-05-01 11:41 | 48.66890 | -124.15540 | 36248 ft | 445 kts | 324° |
| 2026-05-01 11:41 | 48.69491 | -124.18011 | 36509 ft | 445 kts | 324° |
| 2026-05-01 11:41 | 48.72134 | -124.20525 | 36794 ft | 445 kts | 324° |
| 2026-05-01 11:41 | 48.74737 | -124.23001 | 37212 ft | 444 kts | 323° |
| 2026-05-01 11:42 | 48.77356 | -124.25497 | 37563 ft | 443 kts | 324° |
| 2026-05-01 11:42 | 48.79971 | -124.27995 | 37922 ft | 443 kts | 323° |
| 2026-05-01 11:42 | 48.82560 | -124.30472 | 38053 ft | 444 kts | 323° |
| 2026-05-01 11:43 | 48.87812 | -124.35504 | 38058 ft | 443 kts | 323° |
| 2026-05-01 11:43 | 48.93012 | -124.40492 | 38064 ft | 442 kts | 323° |
| 2026-05-01 11:44 | 49.00824 | -124.48011 | 38079 ft | 443 kts | 323° |
| 2026-05-01 11:44 | 49.05999 | -124.53006 | 38078 ft | 443 kts | 323° |
| 2026-05-01 11:45 | 49.11215 | -124.58057 | 38059 ft | 443 kts | 323° |
| 2026-05-01 11:45 | 49.16481 | -124.63168 | 38052 ft | 443 kts | 323° |
| 2026-05-01 11:46 | 49.21702 | -124.68249 | 38050 ft | 443 kts | 323° |
| 2026-05-01 11:46 | 49.26925 | -124.73347 | 38048 ft | 444 kts | 323° |
| 2026-05-01 11:47 | 49.32149 | -124.78457 | 38050 ft | 444 kts | 323° |
| 2026-05-01 11:47 | 49.37388 | -124.83588 | 38049 ft | 442 kts | 322° |
| 2026-05-01 11:48 | 49.42565 | -124.88674 | 38049 ft | 443 kts | 323° |
| 2026-05-01 11:48 | 49.47794 | -124.93826 | 38053 ft | 442 kts | 323° |
| 2026-05-01 11:49 | 49.52974 | -124.98942 | 38060 ft | 442 kts | 322° |
| 2026-05-01 11:49 | 49.58129 | -125.04048 | 38055 ft | 443 kts | 322° |
| 2026-05-01 11:50 | 49.63313 | -125.09191 | 38056 ft | 444 kts | 322° |
| 2026-05-01 11:50 | 49.68513 | -125.14371 | 38070 ft | 444 kts | 323° |
| 2026-05-01 11:51 | 49.73702 | -125.19553 | 38075 ft | 444 kts | 322° |
| 2026-05-01 11:51 | 49.78895 | -125.24744 | 38073 ft | 443 kts | 322° |
| 2026-05-01 11:52 | 49.84063 | -125.29934 | 38068 ft | 444 kts | 323° |
| 2026-05-01 11:52 | 49.89216 | -125.35123 | 38068 ft | 444 kts | 323° |
| 2026-05-01 11:53 | 49.94408 | -125.40352 | 38071 ft | 443 kts | 323° |
| 2026-05-01 11:53 | 49.99543 | -125.45534 | 38072 ft | 441 kts | 322° |
| 2026-05-01 11:54 | 50.04690 | -125.50748 | 38070 ft | 442 kts | 322° |
| 2026-05-01 11:54 | 50.09847 | -125.55995 | 38077 ft | 443 kts | 322° |
| 2026-05-01 11:55 | 50.15043 | -125.61301 | 38081 ft | 442 kts | 322° |
| 2026-05-01 11:55 | 50.20239 | -125.66615 | 38071 ft | 443 kts | 322° |
| 2026-05-01 11:56 | 50.25438 | -125.71935 | 38089 ft | 443 kts | 322° |
| 2026-05-01 11:56 | 50.30597 | -125.77228 | 38086 ft | 442 kts | 322° |
| 2026-05-01 11:57 | 50.34877 | -125.81636 | 38087 ft | 442 kts | 322° |
| 2026-05-01 11:57 | 50.40883 | -125.87831 | 38085 ft | 440 kts | 322° |
| 2026-05-01 11:58 | 50.46032 | -125.93162 | 38091 ft | 441 kts | 322° |
| 2026-05-01 11:59 | 50.53693 | -126.01126 | 38079 ft | 443 kts | 322° |
| 2026-05-01 11:59 | 50.58828 | -126.06482 | 38091 ft | 443 kts | 322° |
| 2026-05-01 12:00 | 50.66513 | -126.14514 | 38094 ft | 442 kts | 322° |
| 2026-05-01 12:01 | 50.74223 | -126.22606 | 38085 ft | 442 kts | 322° |
| 2026-05-01 12:01 | 50.79321 | -126.27977 | 38088 ft | 442 kts | 322° |
| 2026-05-01 12:02 | 50.84415 | -126.33357 | 38088 ft | 442 kts | 322° |
| 2026-05-01 12:02 | 50.89544 | -126.38786 | 38092 ft | 443 kts | 322° |
| 2026-05-01 12:03 | 50.94633 | -126.44184 | 38093 ft | 442 kts | 322° |
| 2026-05-01 12:03 | 50.99744 | -126.49622 | 38102 ft | 443 kts | 322° |
| 2026-05-01 12:04 | 51.04812 | -126.55151 | 38113 ft | 443 kts | 321° |
| 2026-05-01 12:04 | 51.09828 | -126.60765 | 38085 ft | 442 kts | 321° |
| 2026-05-01 12:05 | 51.14901 | -126.66472 | 38067 ft | 442 kts | 320° |
| 2026-05-01 12:05 | 51.22446 | -126.74961 | 38084 ft | 443 kts | 320° |
| 2026-05-01 12:06 | 51.27493 | -126.80644 | 38102 ft | 442 kts | 320° |
| 2026-05-01 12:06 | 51.32503 | -126.86300 | 38082 ft | 441 kts | 320° |
| 2026-05-01 12:07 | 51.37545 | -126.92005 | 38088 ft | 442 kts | 321° |
| 2026-05-01 12:07 | 51.42558 | -126.97692 | 38069 ft | 441 kts | 321° |
| 2026-05-01 12:08 | 51.47542 | -127.03366 | 38086 ft | 442 kts | 321° |
| 2026-05-01 12:08 | 51.52549 | -127.09077 | 38083 ft | 441 kts | 321° |
| 2026-05-01 12:09 | 51.57509 | -127.14745 | 38096 ft | 440 kts | 321° |
| 2026-05-01 12:09 | 51.62516 | -127.20496 | 38091 ft | 439 kts | 321° |
| 2026-05-01 12:10 | 51.69981 | -127.29099 | 38093 ft | 442 kts | 321° |
| 2026-05-01 12:11 | 51.77439 | -127.37726 | 38092 ft | 440 kts | 321° |
| 2026-05-01 12:11 | 51.82405 | -127.43486 | 38094 ft | 440 kts | 321° |
| 2026-05-01 12:12 | 51.87382 | -127.49275 | 38103 ft | 440 kts | 321° |
| 2026-05-01 12:12 | 51.92316 | -127.55035 | 38099 ft | 440 kts | 321° |
| 2026-05-01 12:13 | 51.97259 | -127.60814 | 38107 ft | 439 kts | 321° |
| 2026-05-01 12:13 | 52.02208 | -127.66613 | 38107 ft | 437 kts | 320° |
| 2026-05-01 12:14 | 52.07145 | -127.72427 | 38109 ft | 438 kts | 320° |
| 2026-05-01 12:14 | 52.12120 | -127.78291 | 38111 ft | 439 kts | 321° |
| 2026-05-01 12:15 | 52.17104 | -127.84194 | 38113 ft | 440 kts | 321° |
| 2026-05-01 12:15 | 52.22036 | -127.90054 | 38120 ft | 440 kts | 321° |
| 2026-05-01 12:16 | 52.26968 | -127.95921 | 38129 ft | 438 kts | 321° |
| 2026-05-01 12:16 | 52.31929 | -128.01836 | 38129 ft | 437 kts | 321° |
| 2026-05-01 12:17 | 52.36820 | -128.07692 | 38133 ft | 437 kts | 321° |
| 2026-05-01 12:17 | 52.41706 | -128.13556 | 38142 ft | 437 kts | 321° |
| 2026-05-01 12:18 | 52.46614 | -128.19458 | 38146 ft | 437 kts | 321° |
| 2026-05-01 12:18 | 52.51503 | -128.25363 | 38150 ft | 437 kts | 321° |
| 2026-05-01 12:19 | 52.56392 | -128.31274 | 38147 ft | 437 kts | 321° |
| 2026-05-01 12:19 | 52.61269 | -128.37190 | 38139 ft | 437 kts | 321° |
| 2026-05-01 12:20 | 52.66153 | -128.43123 | 38138 ft | 437 kts | 321° |
| 2026-05-01 12:20 | 52.71019 | -128.49057 | 38130 ft | 436 kts | 321° |
| 2026-05-01 12:21 | 52.75877 | -128.55003 | 38128 ft | 436 kts | 321° |
| 2026-05-01 12:21 | 52.80745 | -128.60988 | 38130 ft | 436 kts | 321° |
| 2026-05-01 12:22 | 52.85564 | -128.66921 | 38134 ft | 436 kts | 320° |
| 2026-05-01 12:22 | 52.90482 | -128.72994 | 38139 ft | 436 kts | 320° |
| 2026-05-01 12:23 | 52.95318 | -128.78979 | 38140 ft | 435 kts | 321° |
| 2026-05-01 12:23 | 53.00141 | -128.84967 | 38140 ft | 435 kts | 321° |
| 2026-05-01 12:24 | 53.04987 | -128.90994 | 38138 ft | 435 kts | 321° |
| 2026-05-01 12:24 | 53.09821 | -128.97023 | 38138 ft | 435 kts | 321° |
| 2026-05-01 12:25 | 53.17059 | -129.06093 | 38144 ft | 436 kts | 321° |
| 2026-05-01 12:26 | 53.21904 | -129.12180 | 38139 ft | 435 kts | 321° |
| 2026-05-01 12:26 | 53.29183 | -129.21368 | 38140 ft | 434 kts | 321° |
| 2026-05-01 12:27 | 53.36402 | -129.30522 | 38141 ft | 435 kts | 321° |
| 2026-05-01 12:28 | 53.43602 | -129.39690 | 38146 ft | 434 kts | 321° |
| 2026-05-01 12:29 | 53.50761 | -129.48840 | 38138 ft | 433 kts | 321° |
| 2026-05-01 12:29 | 53.57937 | -129.58054 | 38140 ft | 433 kts | 321° |
| 2026-05-01 12:30 | 53.65135 | -129.67326 | 38136 ft | 433 kts | 320° |
| 2026-05-01 12:31 | 53.69939 | -129.73550 | 38132 ft | 432 kts | 320° |
| 2026-05-01 12:31 | 53.74679 | -129.79709 | 38127 ft | 433 kts | 320° |
| 2026-05-01 12:32 | 53.79439 | -129.85906 | 38137 ft | 433 kts | 320° |
| 2026-05-01 12:32 | 53.86589 | -129.95239 | 38137 ft | 433 kts | 320° |
| 2026-05-01 12:33 | 53.91337 | -130.01472 | 38133 ft | 433 kts | 320° |
| 2026-05-01 12:33 | 53.96080 | -130.07713 | 38130 ft | 432 kts | 320° |
| 2026-05-01 12:34 | 54.00817 | -130.13969 | 38142 ft | 432 kts | 320° |
| 2026-05-01 12:34 | 54.05551 | -130.20230 | 38157 ft | 431 kts | 320° |
| 2026-05-01 12:35 | 54.10297 | -130.26523 | 38163 ft | 432 kts | 320° |
| 2026-05-01 12:35 | 54.15034 | -130.32831 | 38165 ft | 432 kts | 320° |
| 2026-05-01 12:36 | 54.19786 | -130.39180 | 38172 ft | 432 kts | 321° |
| 2026-05-01 12:36 | 54.24515 | -130.45509 | 38179 ft | 431 kts | 321° |
| 2026-05-01 12:37 | 54.29221 | -130.51829 | 38189 ft | 433 kts | 321° |
| 2026-05-01 12:37 | 54.34001 | -130.58269 | 38185 ft | 432 kts | 321° |
| 2026-05-01 12:38 | 54.38703 | -130.64622 | 38186 ft | 431 kts | 321° |
| 2026-05-01 12:38 | 54.43454 | -130.71059 | 38150 ft | 430 kts | 320° |
| 2026-05-01 12:39 | 54.48185 | -130.77492 | 38261 ft | 432 kts | 320° |
| 2026-05-01 12:39 | 54.52879 | -130.83900 | 38190 ft | 429 kts | 320° |
| 2026-05-01 12:40 | 54.57526 | -130.90253 | 38188 ft | 430 kts | 320° |
| 2026-05-01 12:40 | 54.62199 | -130.96655 | 38187 ft | 431 kts | 320° |
| 2026-05-01 12:41 | 54.66900 | -131.03120 | 38187 ft | 430 kts | 320° |
| 2026-05-01 12:41 | 54.71537 | -131.09520 | 38184 ft | 430 kts | 320° |
| 2026-05-01 12:42 | 54.76214 | -131.16000 | 38187 ft | 430 kts | 320° |
| 2026-05-01 12:42 | 54.80872 | -131.22464 | 38187 ft | 430 kts | 320° |
| 2026-05-01 12:43 | 54.85519 | -131.28938 | 38187 ft | 430 kts | 320° |
| 2026-05-01 12:43 | 54.90175 | -131.35445 | 38188 ft | 430 kts | 320° |
| 2026-05-01 12:44 | 54.94818 | -131.41952 | 38196 ft | 430 kts | 320° |
| 2026-05-01 12:45 | 55.04097 | -131.54982 | 38204 ft | 430 kts | 321° |
| 2026-05-01 12:45 | 55.09020 | -131.60957 | 38213 ft | 432 kts | 327° |
| 2026-05-01 12:46 | 55.14162 | -131.66330 | 38216 ft | 432 kts | 328° |
| 2026-05-01 12:46 | 55.19387 | -131.71632 | 38218 ft | 431 kts | 328° |
| 2026-05-01 12:47 | 55.24551 | -131.76892 | 38219 ft | 431 kts | 328° |
| 2026-05-01 12:47 | 55.29718 | -131.82211 | 38214 ft | 430 kts | 328° |
| 2026-05-01 12:48 | 55.34866 | -131.87549 | 38212 ft | 432 kts | 327° |
| 2026-05-01 12:48 | 55.40014 | -131.92920 | 38213 ft | 432 kts | 327° |
| 2026-05-01 12:49 | 55.45179 | -131.98326 | 38214 ft | 432 kts | 327° |
| 2026-05-01 12:49 | 55.50337 | -132.03744 | 38216 ft | 431 kts | 327° |
| 2026-05-01 12:50 | 55.55477 | -132.09155 | 38211 ft | 431 kts | 327° |
| 2026-05-01 12:50 | 55.60651 | -132.14511 | 38209 ft | 432 kts | 329° |
| 2026-05-01 12:51 | 55.66212 | -132.18468 | 38210 ft | 436 kts | 343° |
| 2026-05-01 12:52 | 55.75151 | -132.21454 | 38209 ft | 438 kts | 348° |
| 2026-05-01 12:52 | 55.84220 | -132.23996 | 38197 ft | 439 kts | 348° |
| 2026-05-01 12:53 | 55.93224 | -132.26678 | 38178 ft | 437 kts | 348° |
| 2026-05-01 12:54 | 55.99199 | -132.28513 | 38170 ft | 437 kts | 348° |
| 2026-05-01 12:54 | 56.08154 | -132.31300 | 38177 ft | 436 kts | 348° |
| 2026-05-01 12:55 | 56.17119 | -132.34116 | 38185 ft | 438 kts | 348° |
| 2026-05-01 12:56 | 56.23098 | -132.35998 | 38194 ft | 438 kts | 348° |
| 2026-05-01 12:56 | 56.29112 | -132.37897 | 38141 ft | 438 kts | 348° |
| 2026-05-01 12:57 | 56.35099 | -132.39795 | 37872 ft | 438 kts | 347° |
| 2026-05-01 12:57 | 56.41053 | -132.41711 | 37369 ft | 433 kts | 346° |
| 2026-05-01 12:57 | 56.43973 | -132.42970 | 37113 ft | 430 kts | 342° |
| 2026-05-01 12:58 | 56.46818 | -132.44618 | 36849 ft | 429 kts | 338° |
| 2026-05-01 12:58 | 56.49576 | -132.46646 | 36591 ft | 429 kts | 334° |
| 2026-05-01 12:58 | 56.52293 | -132.48904 | 36324 ft | 429 kts | 332° |
| 2026-05-01 12:59 | 56.57625 | -132.53668 | 35798 ft | 429 kts | 331° |
| 2026-05-01 12:59 | 56.60279 | -132.56090 | 35533 ft | 430 kts | 331° |
| 2026-05-01 12:59 | 56.65581 | -132.61092 | 34861 ft | 429 kts | 327° |
| 2026-05-01 13:00 | 56.70543 | -132.67079 | 34038 ft | 430 kts | 322° |
| 2026-05-01 13:00 | 56.72969 | -132.70300 | 33569 ft | 432 kts | 321° |
| 2026-05-01 13:01 | 56.77808 | -132.76871 | 32346 ft | 435 kts | 320° |
| 2026-05-01 13:01 | 56.80213 | -132.80130 | 31743 ft | 433 kts | 322° |
| 2026-05-01 13:01 | 56.85358 | -132.85722 | 30518 ft | 428 kts | 330° |
| 2026-05-01 13:02 | 56.88013 | -132.88144 | 29904 ft | 425 kts | 332° |
| 2026-05-01 13:07 | 57.18845 | -133.69200 | 17111 ft | 357 kts | 323° |
| 2026-05-01 13:07 | 57.20929 | -133.71698 | 16528 ft | 355 kts | 329° |
| 2026-05-01 13:07 | 57.23103 | -133.73679 | 15975 ft | 352 kts | 338° |
| 2026-05-01 13:08 | 57.25460 | -133.74831 | 15421 ft | 350 kts | 351° |
| 2026-05-01 13:08 | 57.27875 | -133.75136 | 14844 ft | 348 kts | 360° |
| 2026-05-01 13:08 | 57.30277 | -133.74890 | 14296 ft | 345 kts | 6° |
| 2026-05-01 13:08 | 57.32639 | -133.74205 | 13741 ft | 342 kts | 11° |
| 2026-05-01 13:09 | 57.34980 | -133.73308 | 13209 ft | 340 kts | 12° |
| 2026-05-01 13:09 | 57.37284 | -133.72369 | 12688 ft | 337 kts | 12° |
| 2026-05-01 13:09 | 57.39565 | -133.71454 | 12159 ft | 334 kts | 11° |
| 2026-05-01 13:09 | 57.41834 | -133.70578 | 11677 ft | 329 kts | 10° |
| 2026-05-01 13:10 | 57.44050 | -133.70084 | 11459 ft | 316 kts | 0° |
| 2026-05-01 13:10 | 57.46207 | -133.70273 | 11281 ft | 303 kts | 353° |
| 2026-05-01 13:10 | 57.48266 | -133.70772 | 11085 ft | 293 kts | 350° |
| 2026-05-01 13:10 | 57.50265 | -133.71326 | 10686 ft | 291 kts | 350° |
| 2026-05-01 13:11 | 57.52272 | -133.71848 | 10281 ft | 289 kts | 351° |
| 2026-05-01 13:11 | 57.54277 | -133.72319 | 9871 ft | 288 kts | 352° |
| 2026-05-01 13:11 | 57.56261 | -133.72757 | 9466 ft | 286 kts | 352° |
| 2026-05-01 13:11 | 57.58247 | -133.73183 | 9040 ft | 285 kts | 352° |
| 2026-05-01 13:12 | 57.60230 | -133.73607 | 8640 ft | 283 kts | 353° |
| 2026-05-01 13:12 | 57.62182 | -133.74026 | 8220 ft | 283 kts | 353° |
| 2026-05-01 13:12 | 57.64135 | -133.74448 | 7818 ft | 282 kts | 353° |
| 2026-05-01 13:12 | 57.66095 | -133.74886 | 7426 ft | 279 kts | 351° |
| 2026-05-01 13:13 | 57.67977 | -133.75639 | 7036 ft | 278 kts | 344° |
| 2026-05-01 13:13 | 57.69835 | -133.76634 | 6634 ft | 277 kts | 342° |
| 2026-05-01 13:13 | 57.71692 | -133.77695 | 6266 ft | 275 kts | 342° |
| 2026-05-01 13:13 | 57.73559 | -133.78761 | 5882 ft | 273 kts | 342° |
| 2026-05-01 13:14 | 57.75369 | -133.79779 | 5530 ft | 270 kts | 343° |
| 2026-05-01 13:14 | 57.77175 | -133.80783 | 5465 ft | 269 kts | 343° |
| 2026-05-01 13:14 | 57.78986 | -133.81787 | 5471 ft | 272 kts | 343° |
| 2026-05-01 13:14 | 57.80814 | -133.82800 | 5474 ft | 273 kts | 343° |
| 2026-05-01 13:15 | 57.82649 | -133.83818 | 5463 ft | 272 kts | 343° |
| 2026-05-01 13:15 | 57.84449 | -133.84817 | 5457 ft | 270 kts | 343° |
| 2026-05-01 13:15 | 57.86215 | -133.85849 | 5468 ft | 258 kts | 340° |
| 2026-05-01 13:15 | 57.87823 | -133.87045 | 5469 ft | 243 kts | 336° |
| 2026-05-01 13:16 | 57.89334 | -133.88297 | 5465 ft | 230 kts | 335° |
| 2026-05-01 13:16 | 57.90790 | -133.89525 | 5481 ft | 231 kts | 335° |
| 2026-05-01 13:16 | 57.92264 | -133.90759 | 5474 ft | 231 kts | 335° |
| 2026-05-01 13:17 | 57.96452 | -133.95192 | 5468 ft | 230 kts | 327° |
| 2026-05-01 13:17 | 57.97803 | -133.96786 | 5474 ft | 231 kts | 327° |
| 2026-05-01 13:18 | 58.00530 | -133.99959 | 5496 ft | 230 kts | 327° |
| 2026-05-01 13:18 | 58.01899 | -134.01543 | 5370 ft | 232 kts | 328° |
| 2026-05-01 13:18 | 58.03264 | -134.03124 | 5065 ft | 228 kts | 328° |
| 2026-05-01 13:18 | 58.04601 | -134.04675 | 4810 ft | 226 kts | 327° |
| 2026-05-01 13:19 | 58.05941 | -134.06239 | 4560 ft | 226 kts | 327° |
| 2026-05-01 13:19 | 58.07285 | -134.07800 | 4317 ft | 224 kts | 328° |
| 2026-05-01 13:19 | 58.09914 | -134.10860 | 3804 ft | 222 kts | 328° |
| 2026-05-01 13:20 | 58.11239 | -134.12408 | 3558 ft | 222 kts | 328° |
| 2026-05-01 13:20 | 58.12560 | -134.13960 | 3433 ft | 218 kts | 328° |
| 2026-05-01 13:20 | 58.13862 | -134.15505 | 3434 ft | 221 kts | 328° |
| 2026-05-01 13:21 | 58.16486 | -134.18626 | 3429 ft | 221 kts | 328° |
| 2026-05-01 13:21 | 58.17788 | -134.20180 | 3358 ft | 222 kts | 328° |
| 2026-05-01 13:21 | 58.19101 | -134.21785 | 3235 ft | 219 kts | 324° |
| 2026-05-01 13:21 | 58.20246 | -134.23673 | 3222 ft | 219 kts | 315° |
| 2026-05-01 13:22 | 58.21289 | -134.25751 | 3216 ft | 219 kts | 313° |
| 2026-05-01 13:22 | 58.22328 | -134.27853 | 3211 ft | 208 kts | 313° |
| 2026-05-01 13:22 | 58.23277 | -134.29738 | 3211 ft | 191 kts | 314° |
| 2026-05-01 13:22 | 58.24187 | -134.31526 | 3221 ft | 188 kts | 314° |
| 2026-05-01 13:23 | 58.25090 | -134.33321 | 3217 ft | 189 kts | 313° |
| 2026-05-01 13:23 | 58.25983 | -134.35167 | 3037 ft | 190 kts | 312° |
| 2026-05-01 13:23 | 58.26866 | -134.37010 | 2804 ft | 187 kts | 312° |
| 2026-05-01 13:23 | 58.27733 | -134.38823 | 2630 ft | 185 kts | 313° |
| 2026-05-01 13:24 | 58.28604 | -134.40643 | 2377 ft | 188 kts | 313° |
| 2026-05-01 13:24 | 58.29465 | -134.42445 | 2039 ft | 177 kts | 313° |
| 2026-05-01 13:24 | 58.30272 | -134.44127 | 1790 ft | 164 kts | 314° |
| 2026-05-01 13:25 | 58.31878 | -134.46808 | 1287 ft | 144 kts | 324° |
| 2026-05-01 13:25 | 58.32642 | -134.47954 | 1054 ft | 136 kts | 322° |
| 2026-05-01 13:25 | 58.33369 | -134.49069 | 846 ft | 136 kts | 321° |
| 2026-05-01 13:25 | 58.34079 | -134.50287 | 589 ft | 138 kts | 316° |
| 2026-05-01 13:26 | 58.34656 | -134.51712 | 344 ft | 137 kts | 297° |
| 2026-05-01 13:26 | 58.34916 | -134.53416 | 143 ft | 133 kts | 283° |
| 2026-05-01 13:26 | 58.35144 | -134.55106 | -4 ft | 132 kts | 285° |
| 2026-05-01 13:26 | 58.35358 | -134.56638 | -29 ft | 93 kts | 285° |
| 2026-05-01 13:27 | 58.35475 | -134.57466 | -25 ft | 45 kts | 285° |
| 2026-05-01 13:27 | 58.35539 | -134.57939 | -25 ft | 29 kts | 284° |
| 2026-05-01 13:27 | 58.35654 | -134.57965 | -24 ft | 7 kts | 95° |
| 2026-05-01 13:28 | 58.35627 | -134.57764 | -25 ft | 7 kts | 102° |
| 2026-05-01 13:28 | 58.35612 | -134.57663 | -25 ft | 7 kts | 108° |
| 2026-05-01 13:29 | 58.35585 | -134.57463 | -25 ft | 7 kts | 104° |
| 2026-05-01 13:29 | 58.35528 | -134.57272 | -26 ft | 12 kts | 175° |
| 2026-05-01 13:30 | 58.35562 | -134.58037 | -25 ft | 9 kts | 323° |
| 2026-05-01 13:31 | 58.35671 | -134.58079 | -24 ft | 8 kts | 285° |
| 2026-05-01 13:31 | 58.35777 | -134.58368 | -24 ft | 6 kts | 291° |
| 2026-05-01 13:32 | 58.35812 | -134.58496 | -25 ft | 5 kts | 38° |
| 2026-05-01 13:33 | 58.35846 | -134.58435 | -24 ft | 0 kts | 44° |